Time;durP1;ratioP1;P1;durP2;ratioP2;P2;SDS_P1;SDS_P2;PMS_P1;PMS_P2;Temp;Humidity;BMP_temperature;BMP_pressure;BME280_temperature;BME280_humidity;BME280_pressure;Samples;Min_cycle;Max_cycle;Signal;HPM_P1;HPM_P2
2021/08/20 00:01:59;;;;;;;5.60;1.90;;;15.30;99.90;;;;;;5010474;28;20500;-69
2021/08/20 00:04:26;;;;;;;14.15;3.17;;;15.30;99.90;;;;;;5010598;28;20060;-72
2021/08/20 00:06:53;;;;;;;11.98;3.13;;;15.30;99.90;;;;;;5010499;28;20512;-65
2021/08/20 00:09:21;;;;;;;5.80;1.95;;;15.30;99.90;;;;;;5009079;28;20058;-73
2021/08/20 00:11:48;;;;;;;6.30;1.85;;;15.30;99.90;;;;;;5010192;28;20073;-64
2021/08/20 00:14:16;;;;;;;9.98;2.50;;;15.20;99.90;;;;;;5009987;28;20049;-71
2021/08/20 00:16:43;;;;;;;6.78;1.80;;;15.20;99.90;;;;;;5010484;28;20050;-67
2021/08/20 00:19:10;;;;;;;8.30;2.88;;;15.20;99.90;;;;;;5010341;28;20444;-67
2021/08/20 00:21:38;;;;;;;6.55;2.03;;;15.20;99.90;;;;;;5008711;28;20117;-67
2021/08/20 00:24:06;;;;;;;25.45;4.07;;;15.20;99.90;;;;;;5009972;28;20057;-69
2021/08/20 00:26:33;;;;;;;5.82;3.40;;;15.10;99.90;;;;;;5010340;28;20104;-69
2021/08/20 00:29:00;;;;;;;9.10;2.97;;;15.10;99.90;;;;;;5009171;28;20379;-66
2021/08/20 00:31:28;;;;;;;12.68;2.20;;;15.10;99.90;;;;;;5007146;28;20049;-72
2021/08/20 00:33:55;;;;;;;9.63;2.63;;;15.10;99.90;;;;;;5010136;28;20129;-68
2021/08/20 00:36:22;;;;;;;3.95;1.65;;;15.10;99.90;;;;;;5010170;28;20399;-68
2021/08/20 00:38:49;;;;;;;7.45;2.17;;;15.00;99.90;;;;;;5009970;28;20096;-67
2021/08/20 00:41:16;;;;;;;2.30;1.48;;;15.00;99.90;;;;;;5010321;28;20069;-68
2021/08/20 00:43:47;;;;;;;9.57;2.33;;;15.00;99.90;;;;;;5007488;28;20058;-67
2021/08/20 00:46:14;;;;;;;11.13;1.93;;;15.00;99.90;;;;;;5010238;28;20046;-67
2021/08/20 00:48:41;;;;;;;7.72;2.60;;;15.00;99.90;;;;;;5010336;28;20050;-68
2021/08/20 00:51:22;;;;;;;9.30;2.60;;;15.10;99.90;;;;;;5010267;28;20057;-64
2021/08/20 00:53:50;;;;;;;4.82;1.70;;;15.00;99.90;;;;;;5008611;28;20045;-67
2021/08/20 00:56:19;;;;;;;5.40;1.80;;;15.00;99.90;;;;;;5013018;28;20488;-69
2021/08/20 00:58:48;;;;;;;7.53;2.88;;;15.00;99.90;;;;;;5013791;28;20041;-68
2021/08/20 01:03:52;;;;;;;4.03;2.28;;;15.10;99.90;;;;;;4990588;28;20312;-65
2021/08/20 01:06:19;;;;;;;10.02;2.47;;;15.10;99.90;;;;;;4992839;28;20089;-67
2021/08/20 01:08:46;;;;;;;4.72;1.80;;;15.00;99.90;;;;;;4994399;28;20477;-66
2021/08/20 01:11:13;;;;;;;3.25;1.33;;;15.00;99.90;;;;;;4994502;28;20504;-66
2021/08/20 01:13:42;;;;;;;5.43;1.77;;;15.00;99.90;;;;;;4992251;28;20061;-69
2021/08/20 01:16:10;;;;;;;8.43;2.03;;;15.00;99.90;;;;;;4992531;28;20042;-66
2021/08/20 01:18:39;;;;;;;2.65;2.08;;;15.00;99.90;;;;;;4992672;28;20465;-74
2021/08/20 01:21:09;;;;;;;;;;;15.00;99.90;;;;;;4993051;28;20148;-67
2021/08/20 01:23:37;;;;;;;4.65;1.80;;;14.90;99.90;;;;;;4990795;28;19926;-66
2021/08/20 01:26:05;;;;;;;6.30;2.10;;;14.90;99.90;;;;;;4993727;28;20489;-70
2021/08/20 01:28:33;;;;;;;6.55;1.65;;;14.90;99.90;;;;;;4992211;28;20054;-65
2021/08/20 01:31:04;;;;;;;4.38;2.42;;;14.80;99.90;;;;;;4992383;28;20116;-69
2021/08/20 01:33:32;;;;;;;5.32;1.67;;;14.80;99.90;;;;;;4991148;28;20380;-66
2021/08/20 01:36:00;;;;;;;7.53;2.30;;;14.80;99.90;;;;;;4992407;28;20050;-66
2021/08/20 01:38:27;;;;;;;7.78;3.60;;;14.70;99.90;;;;;;4992027;28;20073;-70
2021/08/20 01:40:55;;;;;;;3.45;1.90;;;14.70;99.90;;;;;;4992087;28;20058;-68
2021/08/20 01:43:22;;;;;;;5.28;1.48;;;14.70;99.90;;;;;;4990824;28;20408;-71
2021/08/20 01:45:50;;;;;;;3.75;1.90;;;14.60;99.90;;;;;;4991636;28;20408;-67
2021/08/20 01:48:18;;;;;;;6.28;2.00;;;14.60;99.90;;;;;;4991947;28;20133;-70
2021/08/20 01:50:45;;;;;;;5.00;1.92;;;14.60;99.90;;;;;;4993361;28;20350;-68
2021/08/20 01:53:15;;;;;;;6.45;3.15;;;14.60;99.90;;;;;;4993625;28;20042;-66
2021/08/20 01:55:44;;;;;;;10.35;2.92;;;14.60;99.90;;;;;;4990366;28;20105;-66
2021/08/20 01:58:12;;;;;;;8.73;2.40;;;14.60;99.90;;;;;;4991810;28;20409;-65
2021/08/20 02:00:40;;;;;;;9.93;2.65;;;14.60;99.90;;;;;;4991987;28;20046;-66
2021/08/20 02:03:09;;;;;;;6.28;2.60;;;14.50;99.90;;;;;;4991887;28;20476;-68
2021/08/20 02:05:36;;;;;;;3.20;2.20;;;14.50;99.90;;;;;;4991649;28;20073;-74
2021/08/20 02:08:05;;;;;;;6.10;1.67;;;14.50;99.90;;;;;;4991054;28;20060;-68
2021/08/20 02:10:32;;;;;;;5.32;2.65;;;14.60;99.90;;;;;;4991490;28;20054;-65
2021/08/20 02:12:59;;;;;;;6.55;1.75;;;14.60;99.90;;;;;;4991724;28;20100;-65
2021/08/20 02:15:29;;;;;;;7.47;2.80;;;14.50;99.90;;;;;;4989817;28;20042;-69
2021/08/20 02:17:56;;;;;;;7.03;2.55;;;14.50;99.90;;;;;;4990916;28;20082;-66
2021/08/20 02:20:26;;;;;;;5.78;2.67;;;14.40;99.90;;;;;;4991252;28;20054;-75
2021/08/20 02:22:53;;;;;;;5.45;1.90;;;14.50;99.90;;;;;;4991478;28;20089;-69
2021/08/20 02:25:22;;;;;;;3.92;1.95;;;14.40;99.90;;;;;;4989617;28;20070;-66
2021/08/20 02:27:50;;;;;;;3.58;2.33;;;14.40;99.90;;;;;;4991307;28;20096;-69
2021/08/20 02:30:17;;;;;;;5.57;2.15;;;14.40;99.90;;;;;;4992606;28;20568;-67
2021/08/20 02:32:48;;;;;;;8.18;2.42;;;14.40;99.90;;;;;;4991305;28;20057;-66
2021/08/20 02:35:24;;;;;;;6.15;3.15;;;14.40;99.90;;;;;;4991447;28;20057;-66
2021/08/20 02:37:52;;;;;;;9.75;2.90;;;14.40;99.90;;;;;;4991097;28;20142;-68
2021/08/20 02:40:20;;;;;;;7.18;3.47;;;14.40;99.90;;;;;;4991340;28;20073;-72
2021/08/20 02:42:49;;;;;;;8.63;2.88;;;14.40;99.90;;;;;;4991046;28;20145;-74
2021/08/20 02:45:17;;;;;;;5.68;2.70;;;14.40;99.90;;;;;;4992355;28;20420;-67
2021/08/20 02:47:46;;;;;;;5.85;2.40;;;14.40;99.90;;;;;;4989026;28;20212;-68
2021/08/20 02:50:13;;;;;;;5.95;2.50;;;14.40;99.90;;;;;;4990945;28;20050;-69
2021/08/20 02:52:40;;;;;;;3.22;1.80;;;14.40;99.90;;;;;;4990707;28;20434;-66
2021/08/20 02:55:07;;;;;;;7.80;2.95;;;14.40;99.90;;;;;;4991022;28;20150;-66
2021/08/20 02:57:39;;;;;;;9.52;2.20;;;14.40;99.90;;;;;;4989521;28;20389;-66
2021/08/20 03:00:07;;;;;;;6.80;1.80;;;14.40;99.90;;;;;;4990865;28;20046;-65
2021/08/20 03:02:34;;;;;;;7.00;2.90;;;14.40;99.90;;;;;;4990201;28;20066;-66
2021/08/20 03:05:04;;;;;;;4.63;2.27;;;14.40;99.90;;;;;;4990998;28;20077;-74
2021/08/20 03:07:31;;;;;;;8.43;3.05;;;14.40;99.90;;;;;;4990539;28;20050;-68
2021/08/20 03:09:58;;;;;;;6.68;2.65;;;14.40;99.90;;;;;;4990507;28;20050;-66
2021/08/20 03:12:26;;;;;;;6.95;2.25;;;14.40;99.90;;;;;;4990353;28;20042;-73
2021/08/20 03:14:55;;;;;;;7.60;2.63;;;14.40;99.90;;;;;;4990517;28;20046;-71
2021/08/20 03:17:28;;;;;;;7.53;1.95;;;14.40;99.90;;;;;;4989299;28;20053;-73
2021/08/20 03:19:55;;;;;;;9.50;2.85;;;14.40;99.90;;;;;;4989331;28;20047;-71
2021/08/20 03:22:22;;;;;;;5.38;2.25;;;14.40;99.90;;;;;;4990426;28;20093;-65
2021/08/20 03:24:49;;;;;;;7.03;2.72;;;14.40;99.90;;;;;;4990290;28;20046;-66
2021/08/20 03:27:16;;;;;;;8.88;2.15;;;14.40;99.90;;;;;;4990409;28;20456;-70
2021/08/20 03:29:56;;;;;;;5.32;2.22;;;14.40;99.90;;;;;;4989055;28;20050;-69
2021/08/20 03:32:29;;;;;;;2.67;1.52;;;14.40;99.90;;;;;;4990433;28;20054;-68
2021/08/20 03:34:56;;;;;;;2.92;1.95;;;14.40;99.90;;;;;;4989920;28;20046;-69
2021/08/20 03:37:24;;;;;;;8.48;2.10;;;14.40;99.90;;;;;;4988514;28;20054;-65
2021/08/20 03:39:53;;;;;;;7.93;2.47;;;14.40;99.90;;;;;;4989633;28;20129;-75
2021/08/20 03:42:21;;;;;;;4.35;2.38;;;14.40;99.90;;;;;;4990489;28;20411;-67
2021/08/20 03:45:07;;;;;;;3.90;2.30;;;14.40;99.90;;;;;;4991870;28;20053;-68
2021/08/20 03:47:37;;;;;;;8.40;2.30;;;14.50;99.90;;;;;;4988404;28;20060;-67
2021/08/20 03:50:05;;;;;;;4.22;2.25;;;14.50;99.90;;;;;;4990269;28;20424;-70
2021/08/20 03:52:35;;;;;;;5.47;2.53;;;14.50;99.90;;;;;;4989993;28;20423;-73
2021/08/20 03:55:04;;;;;;;2.70;1.30;;;14.50;99.90;;;;;;4990140;28;20142;-66
2021/08/20 03:57:35;;;;;;;4.38;2.53;;;14.50;99.90;;;;;;4972464;28;20563;-65
2021/08/20 04:00:05;;;;;;;7.15;2.00;;;14.50;99.90;;;;;;4988815;28;20129;-68
2021/08/20 04:02:39;;;;;;;8.70;2.13;;;14.40;99.90;;;;;;4989536;28;20117;-68
2021/08/20 04:05:08;;;;;;;3.35;1.50;;;14.50;99.90;;;;;;4988342;28;20049;-66
2021/08/20 04:07:55;;;;;;;4.13;1.83;;;14.50;99.90;;;;;;4986721;28;20047;-66
2021/08/20 04:10:46;;;;;;;3.30;2.28;;;14.50;99.90;;;;;;4980866;28;20082;-67
2021/08/20 04:13:25;;;;;;;4.20;1.50;;;14.50;99.90;;;;;;4989777;28;20054;-66
2021/08/20 04:15:52;;;;;;;13.82;2.65;;;14.40;99.90;;;;;;4989243;28;20421;-67
2021/08/20 04:18:19;;;;;;;4.82;1.98;;;14.50;99.90;;;;;;4991211;28;20202;-69
2021/08/20 04:20:46;;;;;;;4.45;2.20;;;14.50;99.90;;;;;;4989702;28;20046;-69
2021/08/20 04:23:18;;;;;;;5.63;2.15;;;14.40;99.90;;;;;;4988771;28;20137;-66
2021/08/20 04:25:49;;;;;;;2.47;1.48;;;14.40;99.90;;;;;;4989234;28;20449;-71
2021/08/20 04:28:35;;;;;;;5.97;3.15;;;14.50;99.90;;;;;;4991404;28;20066;-66
2021/08/20 04:31:14;;;;;;;3.28;1.88;;;14.50;99.90;;;;;;4994151;28;20065;-68
2021/08/20 04:34:01;;;;;;;3.35;1.50;;;14.50;99.90;;;;;;4972898;28;20050;-65
2021/08/20 04:36:49;;;;;;;7.28;2.33;;;14.50;99.90;;;;;;4993549;28;20381;-68
2021/08/20 04:39:26;;;;;;;7.25;1.70;;;14.50;99.90;;;;;;4991799;28;20057;-71
2021/08/20 04:42:10;;;;;;;8.02;2.30;;;14.50;99.90;;;;;;4993314;28;20368;-71
2021/08/20 04:44:58;;;;;;;3.28;1.60;;;14.50;99.90;;;;;;4992993;28;20055;-68
2021/08/20 04:47:46;;;;;;;3.10;1.75;;;14.50;99.90;;;;;;4991752;28;20042;-67
2021/08/20 04:50:42;;;;;;;4.22;1.95;;;14.60;99.90;;;;;;4975088;28;20062;-70
2021/08/20 04:53:29;;;;;;;4.35;1.73;;;14.60;99.90;;;;;;4991999;28;20058;-76
2021/08/20 04:56:22;;;;;;;7.13;2.60;;;14.60;99.90;;;;;;4993200;28;20046;-69
2021/08/20 04:58:49;;;;;;;8.23;1.95;;;14.60;99.90;;;;;;4993317;28;20448;-66
2021/08/20 05:01:17;;;;;;;2.72;1.48;;;14.70;99.90;;;;;;4994330;28;20066;-74
2021/08/20 05:03:47;;;;;;;4.45;2.00;;;14.60;99.90;;;;;;4991323;28;20495;-72
2021/08/20 05:06:14;;;;;;;11.02;2.28;;;14.60;99.90;;;;;;4992866;28;20121;-67
2021/08/20 05:08:41;;;;;;;4.65;2.10;;;14.70;99.90;;;;;;4994174;28;20077;-69
2021/08/20 05:11:10;;;;;;;4.85;2.05;;;14.70;99.90;;;;;;4994221;28;20108;-69
2021/08/20 05:13:37;;;;;;;9.00;2.25;;;14.70;99.90;;;;;;4992618;28;20054;-74
2021/08/20 05:16:04;;;;;;;4.82;2.58;;;14.70;99.90;;;;;;4994402;28;20085;-69
2021/08/20 05:18:32;;;;;;;8.52;2.08;;;14.80;99.90;;;;;;4994031;28;20120;-68
2021/08/20 05:20:59;;;;;;;5.18;2.00;;;14.90;99.90;;;;;;4993884;28;20131;-68
2021/08/20 05:23:26;;;;;;;10.32;3.05;;;15.00;99.90;;;;;;4992575;28;20046;-68
2021/08/20 05:25:54;;;;;;;4.82;2.63;;;15.00;99.90;;;;;;4993454;28;20055;-67
2021/08/20 05:28:21;;;;;;;10.45;2.53;;;15.00;99.90;;;;;;4993479;28;20077;-71
2021/08/20 05:30:48;;;;;;;11.68;3.33;;;15.10;99.90;;;;;;4993821;28;20137;-69
2021/08/20 05:33:15;;;;;;;6.50;2.00;;;15.10;99.90;;;;;;4993834;28;20077;-71
2021/08/20 05:35:46;;;;;;;8.70;1.70;;;15.10;99.90;;;;;;4991614;28;20076;-73
2021/08/20 05:38:14;;;;;;;7.25;2.05;;;15.10;99.90;;;;;;4993577;28;20486;-66
2021/08/20 05:40:41;;;;;;;7.55;2.55;;;15.10;99.90;;;;;;4993112;28;20051;-68
2021/08/20 05:43:08;;;;;;;7.70;2.15;;;15.10;99.90;;;;;;4992694;28;20089;-69
2021/08/20 05:45:38;;;;;;;6.25;2.20;;;15.10;99.90;;;;;;4992153;28;20052;-65
2021/08/20 05:48:07;;;;;;;8.43;2.85;;;15.10;99.90;;;;;;4993151;28;20050;-65
2021/08/20 05:50:35;;;;;;;7.07;3.08;;;15.20;99.90;;;;;;4993269;28;20070;-67
2021/08/20 05:53:02;;;;;;;2.88;1.63;;;15.20;99.90;;;;;;4993092;28;20157;-72
2021/08/20 05:55:31;;;;;;;6.53;2.92;;;15.20;99.90;;;;;;4991190;28;20442;-73
2021/08/20 05:57:59;;;;;;;9.13;2.15;;;15.20;99.90;;;;;;4992876;28;20051;-67
2021/08/20 06:00:26;;;;;;;4.97;3.33;;;15.30;99.90;;;;;;4993023;28;20058;-77
2021/08/20 06:03:01;;;;;;;8.35;2.63;;;15.30;99.90;;;;;;4991477;28;20078;-69
2021/08/20 06:05:28;;;;;;;7.43;2.45;;;15.40;99.90;;;;;;4990304;28;20425;-69
2021/08/20 06:07:55;;;;;;;15.13;3.13;;;15.50;99.90;;;;;;4991644;28;20081;-68
2021/08/20 06:10:22;;;;;;;6.20;2.08;;;15.50;99.90;;;;;;4993176;28;20104;-66
2021/08/20 06:12:49;;;;;;;8.25;3.95;;;15.50;99.90;;;;;;4993575;28;20121;-69
2021/08/20 06:15:17;;;;;;;5.18;2.03;;;15.60;99.90;;;;;;4993179;28;20046;-67
2021/08/20 06:17:43;;;;;;;6.90;1.90;;;15.60;99.90;;;;;;4991545;28;20078;-66
2021/08/20 06:20:11;;;;;;;10.43;2.42;;;15.60;99.90;;;;;;4992766;28;20042;-68
2021/08/20 06:22:38;;;;;;;6.07;1.92;;;15.60;99.90;;;;;;4992836;28;20489;-73
2021/08/20 06:25:06;;;;;;;9.50;3.10;;;15.70;99.90;;;;;;4992892;28;20080;-67
2021/08/20 06:27:32;;;;;;;8.93;2.25;;;15.70;99.90;;;;;;4991220;28;20077;-66
2021/08/20 06:29:59;;;;;;;8.85;2.47;;;15.80;99.90;;;;;;4992684;28;20047;-67
2021/08/20 06:32:26;;;;;;;7.18;2.22;;;15.80;99.90;;;;;;4992360;28;20561;-67
2021/08/20 06:34:53;;;;;;;6.25;1.95;;;15.90;99.90;;;;;;4993135;28;20538;-69
2021/08/20 06:37:20;;;;;;;10.60;2.97;;;16.00;99.90;;;;;;4990915;28;20405;-68
2021/08/20 06:39:47;;;;;;;6.60;2.10;;;16.00;99.90;;;;;;4992509;28;20481;-71
2021/08/20 06:42:15;;;;;;;9.07;2.10;;;16.00;99.90;;;;;;4990791;28;20057;-74
2021/08/20 06:44:42;;;;;;;9.00;1.85;;;15.90;99.90;;;;;;4992979;28;20054;-69
2021/08/20 06:47:09;;;;;;;5.82;2.28;;;15.90;99.90;;;;;;4992980;28;20074;-71
2021/08/20 06:49:36;;;;;;;7.70;2.30;;;16.00;99.90;;;;;;4990786;28;20046;-67
2021/08/20 06:52:03;;;;;;;10.55;2.60;;;16.10;99.90;;;;;;4991636;28;20092;-66
2021/08/20 06:54:30;;;;;;;4.80;2.35;;;16.10;99.90;;;;;;4992224;28;20077;-69
2021/08/20 06:56:56;;;;;;;9.05;2.35;;;16.20;99.90;;;;;;4991918;28;20077;-66
2021/08/20 06:59:23;;;;;;;14.95;2.50;;;16.20;99.90;;;;;;4990536;28;20066;-76
2021/08/20 07:01:50;;;;;;;12.05;2.72;;;16.10;99.90;;;;;;4992181;28;20474;-69
2021/08/20 07:04:17;;;;;;;7.10;2.95;;;16.10;99.90;;;;;;4989587;28;20050;-70
2021/08/20 07:06:44;;;;;;;10.45;2.63;;;16.10;99.90;;;;;;4991278;28;20085;-73
2021/08/20 07:09:11;;;;;;;7.88;2.70;;;16.10;99.90;;;;;;4991739;28;20108;-66
2021/08/20 07:11:38;;;;;;;11.45;3.25;;;16.10;99.90;;;;;;4989851;28;20472;-67
2021/08/20 07:14:05;;;;;;;5.40;2.38;;;16.10;99.90;;;;;;4991595;28;20438;-68
2021/08/20 07:16:32;;;;;;;6.05;2.65;;;16.10;99.90;;;;;;4991648;28;20088;-73
2021/08/20 07:18:59;;;;;;;7.28;2.83;;;16.10;99.90;;;;;;4991667;28;20466;-67
2021/08/20 07:21:26;;;;;;;14.13;4.30;;;16.00;99.90;;;;;;4990001;28;20066;-75
2021/08/20 07:23:53;;;;;;;8.25;2.80;;;16.00;99.90;;;;;;4991908;28;20448;-71
2021/08/20 07:26:20;;;;;;;6.43;2.55;;;16.00;99.90;;;;;;4991543;28;20133;-68
2021/08/20 07:28:47;;;;;;;12.25;2.90;;;16.10;99.90;;;;;;4991449;28;20421;-76
2021/08/20 07:31:14;;;;;;;7.90;3.45;;;16.20;99.90;;;;;;4989839;28;20121;-75
2021/08/20 07:33:41;;;;;;;9.10;3.20;;;16.30;99.90;;;;;;4991374;28;20076;-67
2021/08/20 07:36:08;;;;;;;14.00;2.53;;;16.50;99.90;;;;;;4991017;28;20180;-75
2021/08/20 07:38:35;;;;;;;8.43;3.00;;;16.50;99.90;;;;;;4991940;28;20080;-66
2021/08/20 07:41:02;;;;;;;4.13;1.98;;;16.40;99.90;;;;;;4991501;28;20545;-69
2021/08/20 07:43:29;;;;;;;10.75;4.65;;;16.40;99.90;;;;;;4990083;28;20097;-67
2021/08/20 07:45:56;;;;;;;11.10;2.97;;;16.30;99.90;;;;;;4991209;28;20129;-69
2021/08/20 07:48:23;;;;;;;5.35;2.38;;;16.30;99.90;;;;;;4991318;28;20452;-69
2021/08/20 07:50:51;;;;;;;7.95;3.67;;;16.40;99.90;;;;;;4991139;28;20080;-76
2021/08/20 07:53:18;;;;;;;5.55;2.47;;;16.50;99.90;;;;;;4990020;28;20130;-67
2021/08/20 07:55:48;;;;;;;10.98;3.65;;;16.50;99.90;;;;;;4991172;28;20042;-68
2021/08/20 07:58:15;;;;;;;8.20;2.75;;;16.50;99.90;;;;;;4991464;28;20050;-67
2021/08/20 08:00:43;;;;;;;5.25;2.63;;;16.50;99.90;;;;;;4991259;28;20104;-67
2021/08/20 08:03:10;;;;;;;13.02;3.42;;;16.50;99.90;;;;;;4989618;28;20137;-74
2021/08/20 08:05:38;;;;;;;7.63;3.45;;;16.50;99.90;;;;;;4990231;28;20117;-76
2021/08/20 08:08:05;;;;;;;8.13;2.65;;;16.60;99.90;;;;;;4991453;28;20441;-68
2021/08/20 08:10:32;;;;;;;6.65;2.55;;;16.50;99.90;;;;;;4990986;28;20050;-68
2021/08/20 08:12:59;;;;;;;11.27;3.85;;;16.60;99.90;;;;;;4991472;28;20074;-74
2021/08/20 08:15:26;;;;;;;10.02;2.70;;;16.60;99.90;;;;;;4989848;28;20517;-67
2021/08/20 08:17:55;;;;;;;8.38;3.05;;;16.60;99.90;;;;;;4990937;28;20050;-74
2021/08/20 08:20:24;;;;;;;9.68;2.80;;;16.50;99.90;;;;;;4991424;28;20046;-64
2021/08/20 08:22:51;;;;;;;7.40;4.10;;;16.50;99.90;;;;;;4991200;28;20057;-65
2021/08/20 08:25:20;;;;;;;8.90;2.38;;;16.60;99.90;;;;;;4989916;28;20050;-64
2021/08/20 08:27:53;;;;;;;6.18;2.80;;;16.80;99.90;;;;;;4991059;28;20079;-65
2021/08/20 08:30:20;;;;;;;9.10;2.90;;;16.70;99.90;;;;;;4991671;28;20396;-70
2021/08/20 08:32:47;;;;;;;8.85;2.95;;;16.50;99.90;;;;;;4991392;28;20054;-68
2021/08/20 08:35:15;;;;;;;8.25;2.95;;;16.30;99.90;;;;;;4990157;28;20060;-69
2021/08/20 08:37:42;;;;;;;8.10;3.13;;;16.30;99.90;;;;;;4990881;28;20066;-67
2021/08/20 08:40:10;;;;;;;14.57;4.15;;;16.40;99.90;;;;;;4990948;28;20054;-75
2021/08/20 08:42:37;;;;;;;10.13;3.72;;;16.50;99.90;;;;;;4991127;28;20050;-67
2021/08/20 08:45:05;;;;;;;11.63;3.75;;;16.60;99.90;;;;;;4991257;28;20070;-67
2021/08/20 08:47:34;;;;;;;4.68;2.90;;;16.60;99.90;;;;;;4990246;28;20470;-64
2021/08/20 08:50:06;;;;;;;9.30;3.53;;;16.50;99.90;;;;;;4991186;28;20051;-71
2021/08/20 08:52:34;;;;;;;8.25;3.05;;;16.50;99.90;;;;;;4990935;28;20047;-64
2021/08/20 08:55:03;;;;;;;3.78;2.05;;;16.60;99.90;;;;;;4991227;28;20476;-64
2021/08/20 08:57:30;;;;;;;14.30;2.92;;;16.70;99.90;;;;;;4989289;28;20054;-70
2021/08/20 08:59:57;;;;;;;7.35;3.58;;;16.70;99.90;;;;;;4991196;28;20133;-65
2021/08/20 09:02:26;;;;;;;7.95;2.58;;;16.70;99.90;;;;;;4990796;28;20069;-64
2021/08/20 09:04:58;;;;;;;7.90;2.47;;;16.70;99.90;;;;;;4990712;28;20049;-71
2021/08/20 09:07:26;;;;;;;9.27;3.00;;;16.50;99.90;;;;;;4989400;28;20550;-64
2021/08/20 09:10:17;;;;;;;7.70;3.03;;;16.50;99.90;;;;;;4990568;28;20377;-77
2021/08/20 09:12:50;;;;;;;6.03;2.90;;;16.60;99.90;;;;;;4990648;28;20081;-65
2021/08/20 09:15:19;;;;;;;7.25;2.53;;;16.70;99.90;;;;;;4989170;28;20542;-69
2021/08/20 09:17:57;;;;;;;7.43;2.67;;;16.80;99.90;;;;;;4992435;28;20133;-65
2021/08/20 09:20:27;;;;;;;7.60;3.05;;;16.70;99.90;;;;;;4994356;28;20104;-64
2021/08/20 09:22:56;;;;;;;10.52;2.78;;;16.70;99.90;;;;;;4993983;28;20077;-66
2021/08/20 09:25:40;;;;;;;13.80;2.88;;;16.80;99.90;;;;;;4992914;28;20048;-66
2021/08/20 09:28:09;;;;;;;6.22;1.98;;;16.90;99.90;;;;;;4993695;28;20124;-69
2021/08/20 09:30:37;;;;;;;12.15;3.72;;;16.80;99.90;;;;;;4993629;28;20548;-71
2021/08/20 09:33:12;;;;;;;3.28;2.30;;;16.80;99.90;;;;;;4994013;28;20042;-65
2021/08/20 09:35:40;;;;;;;4.20;2.65;;;16.70;99.90;;;;;;4992444;28;20565;-71
2021/08/20 09:38:13;;;;;;;9.27;3.03;;;16.70;99.90;;;;;;4993669;28;20445;-75
2021/08/20 09:40:54;;;;;;;11.77;2.70;;;16.80;99.90;;;;;;4993213;28;20105;-72
2021/08/20 09:43:32;;;;;;;11.23;3.58;;;16.90;99.90;;;;;;4992536;28;20050;-67
2021/08/20 09:46:12;;;;;;;5.35;2.83;;;17.00;99.90;;;;;;4993094;28;20133;-65
2021/08/20 09:49:00;;;;;;;7.55;3.40;;;16.90;99.90;;;;;;4993406;28;20072;-70
2021/08/20 09:51:30;;;;;;;7.80;3.30;;;16.80;99.90;;;;;;4992125;28;20054;-65
2021/08/20 09:54:06;;;;;;;8.98;4.15;;;16.80;99.90;;;;;;4993067;28;20046;-65
2021/08/20 09:56:53;;;;;;;5.18;2.65;;;16.90;99.90;;;;;;4993114;28;20476;-69
2021/08/20 09:59:21;;;;;;;5.70;2.80;;;17.20;99.90;;;;;;4992021;28;20070;-67
2021/08/20 10:01:49;;;;;;;11.88;3.75;;;17.20;99.90;;;;;;4992772;28;20560;-65
2021/08/20 10:04:17;;;;;;;15.23;4.32;;;17.30;99.90;;;;;;4993380;28;20093;-66
2021/08/20 10:06:46;;;;;;;6.47;2.55;;;17.30;99.90;;;;;;4993340;28;20448;-72
2021/08/20 10:09:18;;;;;;;7.78;3.83;;;17.10;99.90;;;;;;4991733;28;20046;-68
2021/08/20 10:11:49;;;;;;;6.22;2.47;;;17.10;99.90;;;;;;4992914;28;20074;-64
2021/08/20 10:14:19;;;;;;;5.80;2.10;;;17.10;99.90;;;;;;4993396;28;20108;-65
2021/08/20 10:16:46;;;;;;;5.90;2.45;;;17.20;99.90;;;;;;4993013;28;20050;-67
2021/08/20 10:19:13;;;;;;;9.23;3.83;;;17.30;99.90;;;;;;4991426;28;20050;-66
2021/08/20 10:21:41;;;;;;;6.00;2.38;;;17.30;99.90;;;;;;4992564;28;20112;-64
2021/08/20 10:24:10;;;;;;;7.38;3.17;;;17.40;99.90;;;;;;4993019;28;20143;-65
2021/08/20 10:27:02;;;;;;;9.80;3.03;;;17.30;99.90;;;;;;4993140;28;20074;-65
2021/08/20 10:29:31;;;;;;;3.33;2.05;;;17.30;99.90;;;;;;4991123;28;20077;-65
2021/08/20 10:32:03;;;;;;;7.30;3.47;;;17.30;99.90;;;;;;4992504;28;20141;-67
2021/08/20 10:34:30;;;;;;;4.60;2.80;;;17.30;99.90;;;;;;4992879;28;20067;-65
2021/08/20 10:37:05;;;;;;;6.20;2.55;;;17.60;99.90;;;;;;4992529;28;20046;-65
2021/08/20 10:39:32;;;;;;;3.60;1.85;;;17.70;99.90;;;;;;4991253;28;20048;-64
2021/08/20 10:42:05;;;;;;;3.47;2.03;;;17.80;99.90;;;;;;4992620;28;20544;-64
2021/08/20 10:44:40;;;;;;;9.82;3.45;;;17.80;99.90;;;;;;4992866;28;20077;-70
2021/08/20 10:47:08;;;;;;;3.50;2.35;;;17.80;99.90;;;;;;4992756;28;20074;-64
2021/08/20 10:49:36;;;;;;;6.57;2.53;;;17.80;99.90;;;;;;4991136;28;20058;-69
2021/08/20 10:52:04;;;;;;;8.85;2.53;;;17.90;99.90;;;;;;4992286;28;20054;-67
2021/08/20 10:54:30;;;;;;;5.70;2.72;;;18.10;99.90;;;;;;4992350;28;20137;-65
2021/08/20 10:56:58;;;;;;;6.82;3.60;;;18.20;99.90;;;;;;4992230;28;20042;-65
2021/08/20 10:59:43;;;;;;;5.28;3.08;;;18.20;99.90;;;;;;4990913;28;20396;-64
2021/08/20 11:02:19;;;;;;;6.70;2.90;;;17.80;99.90;;;;;;4992207;28;20118;-67
2021/08/20 11:05:02;;;;;;;5.88;2.85;;;17.80;99.90;;;;;;4992214;28;20138;-67
2021/08/20 11:07:38;;;;;;;5.43;2.35;;;17.80;99.90;;;;;;4990613;28;20113;-65
2021/08/20 11:10:11;;;;;;;14.48;3.22;;;17.90;99.90;;;;;;4992288;28;20050;-65
2021/08/20 11:13:02;;;;;;;6.53;2.47;;;17.90;99.90;;;;;;4991896;28;20046;-65
2021/08/20 11:15:30;;;;;;;6.55;2.83;;;18.00;99.90;;;;;;4990379;28;20108;-69
2021/08/20 11:17:59;;;;;;;5.95;2.15;;;17.90;99.90;;;;;;4991748;28;20425;-65
2021/08/20 11:20:35;;;;;;;8.27;2.80;;;17.80;99.90;;;;;;4991583;28;20057;-66
2021/08/20 11:23:14;;;;;;;5.13;3.22;;;17.70;99.90;;;;;;4992045;28;20050;-65
2021/08/20 11:25:49;;;;;;;7.65;2.10;;;17.80;99.90;;;;;;4990307;28;20100;-66
2021/08/20 11:28:24;;;;;;;5.80;2.30;;;18.00;99.90;;;;;;4991723;28;20058;-65
2021/08/20 11:30:55;;;;;;;6.55;2.58;;;18.10;99.90;;;;;;4991853;28;20077;-73
2021/08/20 11:33:35;;;;;;;5.80;2.22;;;18.10;99.90;;;;;;4989824;28;20050;-65
2021/08/20 11:36:07;;;;;;;7.65;2.70;;;18.10;99.90;;;;;;4991388;28;20197;-66
2021/08/20 11:38:35;;;;;;;4.35;1.75;;;18.00;99.90;;;;;;4991277;28;20140;-64
2021/08/20 11:41:08;;;;;;;3.92;2.53;;;18.10;99.90;;;;;;4990767;28;20101;-71
2021/08/20 11:43:53;;;;;;;3.53;1.88;;;18.10;99.90;;;;;;4990141;28;20054;-73
2021/08/20 11:46:22;;;;;;;3.10;2.15;;;18.40;99.90;;;;;;4991614;28;20050;-65
2021/08/20 11:48:51;;;;;;;7.07;2.97;;;18.50;99.90;;;;;;4991612;28;20047;-71
2021/08/20 11:51:36;;;;;;;5.20;2.65;;;18.60;99.90;;;;;;4989655;28;20051;-67
2021/08/20 11:54:10;;;;;;;7.20;2.50;;;18.50;99.90;;;;;;4991454;28;20050;-66
2021/08/20 11:56:47;;;;;;;2.65;1.73;;;18.60;99.90;;;;;;4991483;28;20047;-68
2021/08/20 11:59:14;;;;;;;2.65;1.50;;;18.80;99.90;;;;;;4990223;28;20062;-66
2021/08/20 12:01:41;;;;;;;5.03;2.00;;;18.90;99.90;;;;;;4991087;28;20125;-68
2021/08/20 12:04:28;;;;;;;9.15;2.67;;;19.00;99.90;;;;;;4992018;28;20225;-66
2021/08/20 12:06:55;;;;;;;7.65;3.03;;;19.10;99.90;;;;;;4991536;28;20074;-66
2021/08/20 12:09:23;;;;;;;4.97;2.00;;;19.20;99.90;;;;;;4989887;28;20452;-69
2021/08/20 12:11:53;;;;;;;2.95;1.42;;;19.30;99.90;;;;;;4991181;28;20086;-71
2021/08/20 12:14:22;;;;;;;2.78;1.60;;;19.30;99.90;;;;;;4991409;28;20516;-66
2021/08/20 12:16:51;;;;;;;6.72;1.80;;;19.30;99.90;;;;;;4991022;28;20117;-73
2021/08/20 12:19:25;;;;;;;5.67;2.43;;;19.30;99.90;;;;;;4989773;28;20050;-65
2021/08/20 12:22:07;;;;;;;3.33;1.88;;;19.10;99.90;;;;;;4991163;28;20296;-70
2021/08/20 12:24:40;;;;;;;3.67;1.80;;;19.10;99.90;;;;;;4991462;28;20046;-65
2021/08/20 12:27:20;;;;;;;7.97;3.20;;;19.30;99.90;;;;;;4991081;28;20471;-67
2021/08/20 12:30:11;;;;;;;6.03;2.58;;;19.40;99.90;;;;;;4990121;28;20120;-71
2021/08/20 12:32:40;;;;;;;7.03;2.33;;;19.70;99.90;;;;;;4990961;28;20069;-68
2021/08/20 12:35:20;;;;;;;4.87;2.17;;;19.70;99.90;;;;;;4991121;28;20062;-66
2021/08/20 12:38:04;;;;;;;5.10;1.83;;;19.60;99.90;;;;;;4989929;28;20455;-66
2021/08/20 12:40:48;;;;;;;4.20;1.83;;;19.40;99.90;;;;;;4991240;28;20397;-65
2021/08/20 12:43:31;;;;;;;4.25;2.22;;;19.30;99.90;;;;;;4989700;28;20455;-65
2021/08/20 12:46:11;;;;;;;4.22;1.55;;;19.20;99.90;;;;;;4991273;28;20417;-66
2021/08/20 12:48:41;;;;;;;4.60;2.15;;;19.10;99.90;;;;;;4990790;28;20058;-67
2021/08/20 12:51:11;;;;;;;7.82;2.85;;;18.90;99.90;;;;;;4992171;28;20117;-65
2021/08/20 12:53:39;;;;;;;5.43;2.80;;;18.80;99.90;;;;;;4993310;28;20046;-65
2021/08/20 12:56:06;;;;;;;11.23;2.55;;;18.80;99.90;;;;;;4994595;28;20491;-67
2021/08/20 12:58:35;;;;;;;9.60;4.28;;;19.10;99.90;;;;;;4994333;28;20073;-67
2021/08/20 13:01:07;;;;;;;4.22;1.75;;;19.50;99.90;;;;;;4994429;28;20065;-66
2021/08/20 13:03:35;;;;;;;4.43;1.90;;;19.90;99.90;;;;;;4993302;28;20507;-68
2021/08/20 13:06:07;;;;;;;4.68;1.88;;;20.00;99.90;;;;;;4994090;28;20407;-70